Tonopah, Nevada Weather observations

Data are for observation ending at time listed.
 Day   Time    Ave.   Ave.  Ave.  Vector   Max.   Stn.    Total    Solar   Ave.  
  of    of     Air    Rel.  Wind   Wind    Wind   Baro.  Precip.   Rad.    Soil  
Year   Day     Temp.  Hum.  Speed  Dir.    Gust   Pres.                    Temp. 
2015   (PST)    F      %     mph   deg.    mph     mb.     in.     W/m2     F   
------------------------------------------------------------------------------
  63    6:20   21.7    64    5.9   279      8.6   812.9    0.00       4    33.9
  63    6:30   21.4    65    5.6   279      8.0   813.0    0.00      10    33.8
  63    6:40   21.0    66    4.8   277      7.0   813.1    0.00      20    33.8
  63    6:50   21.5    66    4.1   277      5.3   813.3    0.00      56    33.8
  63    7:00   22.8    63    3.7   282      5.2   813.5    0.00      96    33.7
  63    7:10   23.9    61    3.9   288      6.6   813.6    0.00     140    33.7
  63    7:20   24.6    60    5.4   285      7.8   813.7    0.00     176    33.7
  63    7:30   25.2    58    5.7   283      8.6   813.9    0.00     211    33.7
  63    7:40   26.3    55    4.6   278      7.2   814.0    0.00     247    33.7
  63    7:50   27.7    52    3.5   286      6.0   814.3    0.00     283    33.7
  63    8:00   28.8    50    4.1   285      7.7   814.5    0.00     316    33.7
  63    8:10   28.9    49    5.2   290      8.1   814.6    0.00     354    33.7
  63    8:20   29.1    49    5.7   282      9.7   814.8    0.00     391    33.7
  63    8:30   29.3    48    6.1   264     10.6   815.0    0.00     429    33.7
  63    8:40   29.2    47    6.7   270      9.9   815.1    0.00     463    33.7
  63    8:50   29.3    47    6.8   294     10.4   815.2    0.00     495    33.7
  63    9:00   29.6    47    6.2   291      9.4   815.2    0.00     528    33.8
  63    9:10   29.9    46    7.2   294     12.5   815.3    0.00     558    33.8
  63    9:20   29.6    48    8.4   290     12.6   815.4    0.00     589    33.8
  63    9:30   29.8    47    9.1   289     13.3   815.4    0.00     618    33.7
  63    9:40   30.2    45    8.6   292     12.2   815.4    0.00     646    33.7
  63    9:50   31.2    44    9.7   295     14.8   815.4    0.00     670    33.7
  63   10:00   31.2    43    8.8   297     13.2   815.4    0.00     693    33.8
  63   10:10   32.1    41    8.3   296     13.7   815.4    0.00     715    33.7
  63   10:20   32.7    40    7.7   288     12.6   815.4    0.00     736    33.7
  63   10:30   33.1    40    8.3   294     13.5   815.4    0.00     754    33.7
  63   10:40   33.5    40    8.3   286     13.2   815.4    0.00     773    33.7
  63   10:50   34.1    39    7.3   277     10.8   815.6    0.00     786    33.7
  63   11:00   34.6    38    7.7   287     13.7   815.6    0.00     802    33.7
  63   11:10   34.5    38    7.8   296     12.6   815.7    0.00     808    33.7
  63   11:20   35.5    35    7.8   297     11.8   815.6    0.00     823    33.8
  63   11:30   36.3    34    7.3   292     13.6   815.6    0.00     828    33.9
  63   11:40   37.1    34    6.1   292     12.4   815.7    0.00     833    34.2
  63   11:50   37.4    32    9.1   292     15.5   815.6    0.00     855    34.4
  63   12:00   37.8    31    8.8   303     14.2   815.6    0.00     846    34.6
  63   12:10   38.0    30    8.0   285     14.0   815.6    0.00     869    34.9
  63   12:20   38.5    30    7.5   287     12.6   815.6    0.00     778    35.2
  63   12:30   39.0    30    6.6   292     12.1   815.5    0.00     781    35.5
  63   12:40   38.9    29    7.3   300     11.4   815.5    0.00     787    35.8
  63   12:50   39.6    28    6.1   289     10.6   815.3    0.00     797    36.1
  63   13:00   39.9    28    6.0   287     10.6   815.3    0.00     799    36.4
  63   13:10   40.4    27    7.3   288     12.3   815.2    0.00     803    36.8
  63   13:20   40.6    26    7.3   278     11.8   815.1    0.00     779    37.2
  63   13:30   41.0    26    7.8   283     13.9   815.1    0.00     775    37.5
  63   13:40   41.4    24    8.1   310     13.5   815.1    0.00     791    37.9
  63   13:50   41.7    22    8.0   287     13.2   815.1    0.00     767    38.2
  63   14:00   42.5    20    7.6   294     12.1   815.1    0.00     741    38.6
  63   14:10   42.5    21    7.5   299     13.4   815.0    0.00     691    38.9
  63   14:20   43.2    21    7.7   288     12.9   815.1    0.00     651    39.3
  63   14:30   43.4    22    7.9   286     11.8   815.1    0.00     617    39.6
  63   14:40   43.3    22    7.6   290     13.3   815.1    0.00     552    39.9
  63   14:50   43.3    22    8.2   293     13.0   815.1    0.00     613    40.1
  63   15:00   43.7    22    8.1   300     11.3   815.2    0.00     579    40.4
  63   15:10   44.4    21    7.3   272     12.7   815.2    0.00     551    40.6
  63   15:20   44.4    22    7.9   293     12.9   815.3    0.00     443    40.8
  63   15:30   43.8    22    6.4   292     10.4   815.3    0.00     344    41.1
  63   15:40   43.9    23    6.9   286     11.1   815.3    0.00     321    41.2
  63   15:50   44.3    22    6.6   298     10.0   815.4    0.00     341    41.3
  63   16:00   44.3    22    7.9   283     13.4   815.5    0.00     382    41.4
  63   16:10   45.0    22    7.1   292     11.6   815.5    0.00     365    41.5
  63   16:20   44.2    23    7.7   288     13.7   815.5    0.00     253    41.5
  63   16:30   44.7    23    7.4   288     12.9   815.6    0.00     301    41.5
  63   16:40   44.2    22    7.2   282     10.7   815.6    0.00     204    41.5
  63   16:50   43.7    23    6.5   281      9.6   815.6    0.00     167    41.5
  63   17:00   43.3    23    5.7   278      9.6   815.7    0.00     106    41.4
  63   17:10   42.4    25    6.0   284      9.2   815.7    0.00      91    41.3
  63   17:20   41.8    26    4.7   268      7.5   815.8    0.00      56    41.2
  63   17:30   42.0    25    5.4   259      8.0   815.9    0.00      52    41.1
  63   17:40   40.5    28    4.3   245      5.9   816.0    0.00      20    41.0
  63   17:50   39.2    30    3.5   247      5.3   816.1    0.00       7    40.9
  63   18:00   38.3    31    3.1   248      5.1   816.1    0.00       3    40.8
  63   18:10   37.7    31    3.4   243      4.7   816.2    0.00       0    40.7
  63   18:20   37.0    33    1.6   259      3.1   816.3    0.00       0    40.5
  63   18:30   36.5    32    0.9   292      2.9   816.4    0.00       0    40.4
  63   18:40   36.4    33    0.4   316      1.2   816.6    0.00       0    40.2
  63   18:50   35.6    36    0.5   130      2.8   816.6    0.00       0    40.1
  63   19:00   34.9    38    1.2   133      2.2   816.7    0.00       0    39.9
  63   19:10   34.3    39    0.6   124      1.7   816.9    0.00       0    39.8
  63   19:20   34.1    40    0.7   123      1.5   816.9    0.00       0    39.6
  63   19:30   33.8    40    1.4    98      2.1   816.9    0.00       0    39.5
  63   19:40   34.0    39    1.2   101      1.9   816.9    0.00       0    39.3
  63   19:50   33.7    41    1.3    96      2.0   817.0    0.00       0    39.1
  63   20:00   32.9    43    1.5    96      2.2   817.1    0.00       0    38.9
  63   20:10   33.1    42    1.3    96      2.3   817.2    0.00       0    38.8
  63   20:20   32.7    43    1.1   100      2.3   817.3    0.00       0    38.6
  63   20:30   32.4    44    0.8    90      1.6   817.4    0.00       0    38.5
  63   20:40   32.3    44    0.2   176      1.0   817.6    0.00       0    38.3
  63   20:50   33.6    40    2.3   244      3.4   817.7    0.00       0    38.2
  63   21:00   33.3    40    1.7   238      4.4   817.8    0.00       0    38.0
  63   21:10   34.2    39    3.0   245      4.9   817.9    0.00       0    37.9
  63   21:20   33.6    41    1.4   250      4.5   818.0    0.00       0    37.7
  63   21:30   33.1    42    1.2   248      2.9   818.2    0.00       0    37.6
  63   21:40   32.5    44    0.5   247      3.2   818.2    0.00       0    37.5
  63   21:50   31.8    46    0.0   259      0.6   818.3    0.00       0    37.4
  63   22:00   32.4    44    0.2   202      1.0   818.3    0.00       0    37.3
  63   22:10   32.6    45    0.8   222      2.3   818.4    0.00       0    37.2
  63   22:20   31.8    46    0.6   245      1.8   818.5    0.00       0    37.0
  63   22:30   31.5    46    0.3   260      1.6   818.5    0.00       0    36.9
  63   22:40   31.6    46    0.0   160      0.4   818.4    0.00       0    36.8
  63   22:50   31.5    46    0.3   108      1.1   818.4    0.00       0    36.7
  63   23:00   31.2    47    0.7    89      2.0   818.4    0.00       0    36.7
  63   23:10   30.5    49    2.7   110      3.5   818.5    0.00       0    36.6
  63   23:20   30.5    49    2.2   113      2.8   818.6    0.00       0    36.5
  63   23:30   30.6    49    1.0   103      2.3   818.5    0.00       0    36.4
  63   23:40   30.4    49    1.0   104      2.3   818.6    0.00       0    36.3
  63   23:50   30.1    50    0.8   116      1.5   818.6    0.00       0    36.2
  64    0:00   30.0    50    2.6   112      3.9   818.6    0.00       0    36.2
  64    0:10   29.8    51    2.0   109      2.7   818.7    0.00       0    36.1
  64    0:20   29.9    50    0.6    78      2.2   818.8    0.00       0    36.0
  64    0:30   30.0    51    2.3   113      4.0   818.8    0.00       0    36.0
  64    0:40   28.8    55    2.3   126      3.1   818.8    0.00       0    35.9
  64    0:50   27.4    58    2.1   130      3.1   818.8    0.00       0    35.8
  64    1:00   29.1    52    2.0   148      3.0   818.9    0.00       0    35.7
  64    1:10   29.0    53    1.0   122      2.5   818.9    0.00       0    35.7
  64    1:20   27.6    56    1.8   118      2.5   819.0    0.00       0    35.6
  64    1:30   28.7    53    2.0   122      3.2   818.9    0.00       0    35.5
  64    1:40   27.4    57    2.5   121      3.1   819.0    0.00       0    35.5
  64    1:50   28.1    56    2.4   129      3.3   819.0    0.00       0    35.4
  64    2:00   27.1    59    3.7   115      4.8   819.1    0.00       0    35.4
  64    2:10   27.5    58    2.9   115      3.7   819.0    0.00       0    35.3
  64    2:20   26.6    60    2.0   132      3.0   819.1    0.00       0    35.2
  64    2:30   26.2    61    2.4   124      3.7   819.1    0.00       0    35.2
  64    2:40   25.4    64    2.4   117      3.1   819.1    0.00       0    35.1
  64    2:50   25.3    64    2.9   112      3.5   819.1    0.00       0    35.1
  64    3:00   25.4    64    2.8   119      3.4   819.1    0.00       0    35.0
  64    3:10   25.0    65    2.9   117      3.7   819.0    0.00       0    35.0
  64    3:20   25.0    65    2.3   132      3.4   819.0    0.00       0    34.9
  64    3:30   25.4    62    2.8   142      3.7   819.1    0.00       0    34.9
  64    3:40   26.5    59    3.5   141      4.5   819.1    0.00       0    34.8
  64    3:50   27.6    56    2.9   124      3.9   819.1    0.00       0    34.8
  64    4:00   27.8    55    3.1   136      3.9   819.1    0.00       0    34.7
  64    4:10   27.0    58    3.2   131      4.1   819.1    0.00       0    34.7
  64    4:20   25.4    62    3.3   111      4.0   819.1    0.00       0    34.6
  64    4:30   26.7    58    3.5   113      4.2   819.1    0.00       0    34.6
  64    4:40   26.9    57    2.5   131      3.3   819.2    0.00       0    34.5
  64    4:50   25.8    60    2.8   112      3.9   819.3    0.00       0    34.5
  64    5:00   26.5    57    2.7   134      3.7   819.5    0.00       0    34.4
  64    5:10   24.9    62    1.1   137      3.0   819.6    0.00       0    34.4
  64    5:20   24.4    63    2.3   125      3.5   819.7    0.00       0    34.3
  64    5:30   24.5    62    2.8   121      3.5   819.8    0.00       0    34.3
  64    5:40   25.0    60    2.7   140      3.4   819.9    0.00       0    34.3
  64    5:50   24.7    61    1.9   122      3.1   819.9    0.00       0    34.2
  64    6:00   23.6    64    1.4   115      2.0   820.0    0.00       0    34.2
  64    6:10   23.6    64    2.2   132      2.9   820.1    0.00       1    34.1

Return to Tonopah, Nevada graphs page.


Western Regional Climate Center,wrcc@dri.edu